createdAt,value
2018-06-20T00:02:54.187Z,19.70
2018-06-20T00:05:22.823Z,19.70
2018-06-20T00:07:51.397Z,19.60
2018-06-20T00:10:20.061Z,19.60
2018-06-20T00:12:49.419Z,19.60
2018-06-20T00:15:18.267Z,19.60
2018-06-20T00:17:46.859Z,19.60
2018-06-20T00:20:15.625Z,19.50
2018-06-20T00:22:44.314Z,19.60
2018-06-20T00:25:13.205Z,19.60
2018-06-20T00:30:10.075Z,19.60
2018-06-20T00:32:38.900Z,19.50
2018-06-20T00:35:07.670Z,19.50
2018-06-20T00:37:36.339Z,19.40
2018-06-20T00:40:05.148Z,19.30
2018-06-20T00:42:33.894Z,19.20
2018-06-20T00:45:02.691Z,19.20
2018-06-20T00:47:31.311Z,19.20
2018-06-20T00:50:00.136Z,19.10
2018-06-20T00:52:28.727Z,19.10
2018-06-20T00:54:57.467Z,19.10
2018-06-20T00:57:26.156Z,19.10
2018-06-20T00:59:55.060Z,19.10
2018-06-20T01:02:23.691Z,19.10
2018-06-20T01:04:52.450Z,19.10
2018-06-20T01:07:20.970Z,19.10
2018-06-20T01:09:49.836Z,19.10
2018-06-20T01:12:18.613Z,19.20
2018-06-20T01:14:47.307Z,19.20
2018-06-20T01:17:16.063Z,19.20
2018-06-20T01:19:44.910Z,19.20
2018-06-20T01:22:13.495Z,19.20
2018-06-20T01:24:42.390Z,19.20
2018-06-20T01:27:11.010Z,19.20
2018-06-20T01:29:39.597Z,19.20
2018-06-20T01:32:08.384Z,19.20
2018-06-20T01:34:37.168Z,19.20
2018-06-20T01:37:06.174Z,19.10
2018-06-20T01:39:35.119Z,19.10
2018-06-20T01:42:03.999Z,19.10
2018-06-20T01:44:32.775Z,19.10
2018-06-20T01:47:01.335Z,19.10
2018-06-20T01:49:30.043Z,19.10
2018-06-20T01:51:58.626Z,19.10
2018-06-20T01:54:27.323Z,19.10
2018-06-20T01:56:56.068Z,19.20
2018-06-20T01:59:24.788Z,19.20
2018-06-20T02:01:53.369Z,19.10
2018-06-20T02:04:22.046Z,19.10
2018-06-20T02:06:50.779Z,19.10
2018-06-20T02:09:19.439Z,19.00
2018-06-20T02:11:48.083Z,19.00
2018-06-20T02:14:16.984Z,19.00
2018-06-20T02:16:45.682Z,19.00
2018-06-20T02:19:14.475Z,19.00
2018-06-20T02:24:11.758Z,19.00
2018-06-20T02:26:40.603Z,19.00
2018-06-20T02:29:09.242Z,18.90
2018-06-20T02:31:38.024Z,18.90
2018-06-20T02:34:06.618Z,18.90
2018-06-20T02:36:35.356Z,18.90
2018-06-20T02:39:06.652Z,18.90
2018-06-20T02:41:36.192Z,18.90
2018-06-20T02:44:04.953Z,18.90
2018-06-20T02:46:33.903Z,18.90
2018-06-20T02:49:02.680Z,18.90
2018-06-20T02:51:31.306Z,18.90
2018-06-20T02:53:59.955Z,19.00
2018-06-20T02:56:28.592Z,19.00
2018-06-20T02:58:57.238Z,19.00
2018-06-20T03:01:25.771Z,19.00
2018-06-20T03:03:54.412Z,19.00
2018-06-20T03:06:22.935Z,19.00
2018-06-20T03:08:56.888Z,19.00
2018-06-20T03:11:25.443Z,19.00
2018-06-20T03:13:54.238Z,19.00
2018-06-20T03:16:22.908Z,19.00
2018-06-20T03:18:51.500Z,19.00
2018-06-20T03:21:20.243Z,19.00
2018-06-20T03:23:48.879Z,19.00
2018-06-20T03:26:17.350Z,19.00
2018-06-20T03:28:46.099Z,19.00
2018-06-20T03:31:14.820Z,19.00
2018-06-20T03:33:43.419Z,19.00
2018-06-20T03:36:11.963Z,19.00
2018-06-20T03:38:40.752Z,19.00
2018-06-20T03:41:09.546Z,19.00
2018-06-20T03:43:38.114Z,19.00
2018-06-20T03:46:06.807Z,19.00
2018-06-20T03:48:35.370Z,19.00
2018-06-20T03:51:03.991Z,19.00
2018-06-20T03:53:32.677Z,19.10
2018-06-20T03:56:01.391Z,19.10
2018-06-20T03:58:30.134Z,19.10
2018-06-20T04:00:58.723Z,19.10
2018-06-20T04:03:27.571Z,19.20
2018-06-20T04:05:56.188Z,19.20
2018-06-20T04:08:24.937Z,19.20
2018-06-20T04:10:53.585Z,19.20
2018-06-20T04:13:22.430Z,19.20
2018-06-20T04:15:51.091Z,19.20
2018-06-20T04:18:19.704Z,19.20
2018-06-20T04:20:48.331Z,19.20
2018-06-20T04:23:16.943Z,19.30
2018-06-20T04:25:45.751Z,19.30
2018-06-20T04:28:14.368Z,19.30
2018-06-20T04:30:43.200Z,19.40
2018-06-20T04:33:11.787Z,19.40
2018-06-20T04:35:40.539Z,19.50
2018-06-20T04:38:09.303Z,19.50
2018-06-20T04:40:38.095Z,19.50
2018-06-20T04:43:06.894Z,19.50
2018-06-20T04:45:35.616Z,19.50
2018-06-20T04:48:04.660Z,19.60
2018-06-20T04:50:33.555Z,19.60
2018-06-20T04:53:02.191Z,19.70
2018-06-20T04:55:30.830Z,19.70
2018-06-20T04:57:59.537Z,19.70
2018-06-20T05:00:28.211Z,19.70
2018-06-20T05:02:56.936Z,19.70
2018-06-20T05:05:25.887Z,19.80
2018-06-20T05:07:54.618Z,19.90
2018-06-20T05:10:23.296Z,20.00
2018-06-20T05:12:51.966Z,20.20
2018-06-20T05:17:49.382Z,20.30
2018-06-20T05:20:18.139Z,20.40
2018-06-20T05:22:46.756Z,20.50
2018-06-20T05:25:15.505Z,20.60
2018-06-20T05:27:44.237Z,20.80
2018-06-20T05:30:13.166Z,20.90
2018-06-20T05:32:41.827Z,21.00
2018-06-20T05:35:10.684Z,20.90
2018-06-20T05:37:39.360Z,20.90
2018-06-20T05:40:08.109Z,20.90
2018-06-20T05:42:36.875Z,20.90
2018-06-20T05:45:05.679Z,21.00
2018-06-20T05:47:34.278Z,21.10
2018-06-20T05:50:03.027Z,21.10
2018-06-20T05:52:31.631Z,21.30
2018-06-20T05:55:00.581Z,21.30
2018-06-20T05:57:29.327Z,21.40
2018-06-20T05:59:58.317Z,21.40
2018-06-20T06:02:27.023Z,21.50
2018-06-20T06:04:55.928Z,21.70
2018-06-20T06:07:24.734Z,21.70
2018-06-20T06:09:53.423Z,21.70
2018-06-20T06:12:22.115Z,21.70
2018-06-20T06:14:50.900Z,21.70
2018-06-20T06:17:19.647Z,21.70
2018-06-20T06:19:48.355Z,21.80
2018-06-20T06:22:17.119Z,22.00
2018-06-20T06:24:45.822Z,22.10
2018-06-20T06:27:14.571Z,22.00
2018-06-20T06:29:43.555Z,22.20
2018-06-20T06:32:12.117Z,22.30
2018-06-20T06:34:41.060Z,22.20
2018-06-20T06:37:10.080Z,22.20
2018-06-20T06:39:38.680Z,22.30
2018-06-20T06:42:07.579Z,22.40
2018-06-20T06:44:36.088Z,22.60
2018-06-20T06:47:04.810Z,22.80
2018-06-20T06:49:33.627Z,22.60
2018-06-20T06:52:02.159Z,22.50
2018-06-20T06:54:30.763Z,22.40
2018-06-20T06:56:59.642Z,22.20
2018-06-20T06:59:28.492Z,22.30
2018-06-20T07:01:57.459Z,22.40
2018-06-20T07:04:26.073Z,22.50
2018-06-20T07:06:54.756Z,22.70
2018-06-20T07:09:23.779Z,22.80
2018-06-20T07:11:52.343Z,22.80
2018-06-20T07:14:21.333Z,22.90
2018-06-20T07:16:50.231Z,23.10
2018-06-20T07:19:18.979Z,23.20
2018-06-20T07:21:48.043Z,22.90
2018-06-20T07:24:16.706Z,23.10
2018-06-20T07:26:45.380Z,23.20
2018-06-20T07:29:14.392Z,23.20
2018-06-20T07:31:43.002Z,23.40
2018-06-20T07:34:11.759Z,23.60
2018-06-20T07:36:40.471Z,23.80
2018-06-20T07:39:09.351Z,24.10
2018-06-20T07:41:38.091Z,24.10
2018-06-20T07:46:35.289Z,24.50
2018-06-20T07:49:04.175Z,25.10
2018-06-20T07:51:32.990Z,25.10
2018-06-20T07:54:01.584Z,25.00
2018-06-20T07:56:30.308Z,25.10
2018-06-20T07:58:59.542Z,25.30
2018-06-20T08:02:47.111Z,25.80
2018-06-20T08:05:21.406Z,25.50
2018-06-20T08:07:55.515Z,25.50
2018-06-20T08:10:29.348Z,25.10
2018-06-20T08:13:03.132Z,24.90
2018-06-20T08:15:37.259Z,24.60
2018-06-20T08:18:11.214Z,24.60
2018-06-20T08:20:39.753Z,24.60
2018-06-20T08:23:08.414Z,25.00
2018-06-20T08:25:36.948Z,25.80
2018-06-20T08:28:05.807Z,26.80
2018-06-20T08:30:34.335Z,28.50
2018-06-20T08:33:02.826Z,29.10
2018-06-20T08:35:33.731Z,28.60
2018-06-20T08:38:02.571Z,28.80
2018-06-20T08:40:31.041Z,30.50
2018-06-20T08:42:59.619Z,32.20
2018-06-20T08:45:28.104Z,33.70
2018-06-20T08:47:56.711Z,32.40
2018-06-20T08:50:25.183Z,33.30
2018-06-20T08:52:53.795Z,32.90
2018-06-20T08:55:22.286Z,31.50
2018-06-20T08:57:50.998Z,29.90
2018-06-20T09:00:24.866Z,28.40
2018-06-20T09:02:53.483Z,27.30
2018-06-20T09:05:27.615Z,26.60
2018-06-20T09:08:01.553Z,26.00
2018-06-20T09:10:35.478Z,25.60
2018-06-20T09:13:09.291Z,25.90
2018-06-20T09:15:43.464Z,26.20
2018-06-20T09:18:17.294Z,26.00
2018-06-20T09:20:45.836Z,25.90
2018-06-20T09:23:14.544Z,26.70
2018-06-20T09:25:43.484Z,27.60
2018-06-20T09:28:12.092Z,28.80
2018-06-20T09:30:40.800Z,30.60
2018-06-20T09:33:09.297Z,32.40
2018-06-20T09:35:37.934Z,33.50
2018-06-20T09:40:34.701Z,32.60
2018-06-20T09:43:03.472Z,33.30
2018-06-20T09:48:00.411Z,34.90
2018-06-20T09:50:34.428Z,35.40
2018-06-20T09:53:03.391Z,35.90
2018-06-20T09:55:32.130Z,36.30
2018-06-20T09:58:00.949Z,37.00
2018-06-20T10:02:44.483Z,35.40
2018-06-20T10:05:18.576Z,33.80
2018-06-20T10:07:52.255Z,31.30
2018-06-20T10:10:26.087Z,31.30
2018-06-20T10:13:00.202Z,32.20
2018-06-20T10:15:29.124Z,33.30
2018-06-20T10:17:57.856Z,33.50
2018-06-20T10:20:29.362Z,32.40
2018-06-20T10:22:59.588Z,31.80
2018-06-20T10:25:28.876Z,30.90
2018-06-20T10:27:58.132Z,30.40
2018-06-20T10:30:26.844Z,29.90
2018-06-20T10:32:55.444Z,29.70
2018-06-20T10:35:24.383Z,29.40
2018-06-20T10:37:52.943Z,28.50
2018-06-20T10:40:21.505Z,28.00
2018-06-20T10:42:50.104Z,28.50
2018-06-20T10:45:23.743Z,29.20
2018-06-20T10:47:52.765Z,30.50
2018-06-20T10:50:21.617Z,31.30
2018-06-20T10:52:50.321Z,31.20
2018-06-20T10:55:19.111Z,31.90
2018-06-20T11:00:26.948Z,33.70
2018-06-20T11:03:00.749Z,33.50
2018-06-20T11:05:34.477Z,32.60
2018-06-20T11:08:08.676Z,32.90
2018-06-20T11:10:42.512Z,33.60
2018-06-20T11:13:13.487Z,34.10
2018-06-20T11:15:42.380Z,33.70
2018-06-20T11:18:11.205Z,32.10
2018-06-20T11:20:44.982Z,31.10
2018-06-20T11:23:13.534Z,30.70
2018-06-20T11:25:42.144Z,30.60
2018-06-20T11:28:13.877Z,31.10
2018-06-20T11:30:43.862Z,30.80
2018-06-20T11:33:12.981Z,31.80
2018-06-20T11:35:42.206Z,30.80
2018-06-20T11:38:11.341Z,29.90
2018-06-20T11:40:39.904Z,30.10
2018-06-20T11:43:08.627Z,30.20
2018-06-20T11:45:42.713Z,30.10
2018-06-20T11:48:11.367Z,29.80
2018-06-20T11:50:40.071Z,29.00
2018-06-20T11:53:10.038Z,28.60
2018-06-20T11:55:44.181Z,28.90
2018-06-20T11:58:18.036Z,29.40
2018-06-20T12:00:51.899Z,29.40
2018-06-20T12:06:00.110Z,29.00
2018-06-20T12:08:34.207Z,28.90
2018-06-20T12:11:08.116Z,29.00
2018-06-20T12:13:42.041Z,29.40
2018-06-20T12:16:23.959Z,29.70
2018-06-20T12:18:57.731Z,29.60
2018-06-20T12:21:31.772Z,29.60
2018-06-20T12:24:06.167Z,29.80
2018-06-20T12:26:40.331Z,29.70
2018-06-20T12:29:14.061Z,29.40
2018-06-20T12:31:48.064Z,29.10
2018-06-20T12:34:22.153Z,29.20
2018-06-20T12:36:56.204Z,29.30
2018-06-20T12:39:23.939Z,29.30
2018-06-20T12:41:57.759Z,29.00
2018-06-20T12:45:29.980Z,28.60
2018-06-20T12:50:28.240Z,28.60
2018-06-20T12:52:57.416Z,28.50
2018-06-20T12:55:26.696Z,28.40
2018-06-20T12:57:55.997Z,28.40
2018-06-20T13:00:24.594Z,28.60
2018-06-20T13:02:53.298Z,29.00
2018-06-20T13:05:22.017Z,29.40
2018-06-20T13:10:18.884Z,29.20
2018-06-20T13:15:15.903Z,29.40
2018-06-20T13:17:44.590Z,29.50
2018-06-20T13:20:13.564Z,29.70
2018-06-20T13:22:42.310Z,29.80
2018-06-20T13:25:10.987Z,29.80
2018-06-20T13:30:13.484Z,29.70
2018-06-20T13:32:47.437Z,29.60
2018-06-20T13:35:21.306Z,29.60
2018-06-20T13:37:55.418Z,29.80
2018-06-20T13:40:29.048Z,29.80
2018-06-20T13:43:03.111Z,30.00
2018-06-20T13:45:37.035Z,29.60
2018-06-20T13:48:11.150Z,29.40
2018-06-20T13:50:40.082Z,29.20
2018-06-20T13:53:08.780Z,28.70
2018-06-20T13:55:37.549Z,28.70
2018-06-20T13:58:11.241Z,29.00
2018-06-20T14:00:39.897Z,29.30
2018-06-20T14:03:08.715Z,29.50
2018-06-20T14:05:37.518Z,29.70
2018-06-20T14:08:06.223Z,29.50
2018-06-20T14:10:35.093Z,29.40
2018-06-20T14:13:03.969Z,29.40
2018-06-20T14:15:32.633Z,29.40
2018-06-20T14:18:01.440Z,29.40
2018-06-20T14:20:35.448Z,29.30
2018-06-20T14:23:04.024Z,28.90
2018-06-20T14:25:32.556Z,28.70
2018-06-20T14:28:01.196Z,28.70
2018-06-20T14:31:35.915Z,28.50
2018-06-20T14:34:09.808Z,28.30
2018-06-20T14:36:44.318Z,28.60
2018-06-20T14:39:18.524Z,29.00
2018-06-20T14:41:52.524Z,29.20
2018-06-20T14:44:21.166Z,29.40
2018-06-20T14:46:49.797Z,29.50
2018-06-20T14:49:18.317Z,29.40
2018-06-20T14:51:46.955Z,29.40
2018-06-20T14:54:15.634Z,29.40
2018-06-20T14:56:44.304Z,29.10
2018-06-20T14:59:12.988Z,28.50
2018-06-20T15:01:41.616Z,28.50
2018-06-20T15:04:10.244Z,28.20
2018-06-20T15:06:38.859Z,27.90
2018-06-20T15:09:08.397Z,28.10
2018-06-20T15:14:05.778Z,28.90
2018-06-20T15:16:39.619Z,29.10
2018-06-20T15:19:08.135Z,29.20
2018-06-20T15:21:36.715Z,29.20
2018-06-20T15:24:05.712Z,29.20
2018-06-20T15:26:39.551Z,28.80
2018-06-20T15:31:47.391Z,28.30
2018-06-20T15:34:21.377Z,28.20
2018-06-20T15:36:55.146Z,28.50
2018-06-20T15:39:24.011Z,28.60
2018-06-20T15:41:52.817Z,28.60
2018-06-20T15:44:23.324Z,28.60
2018-06-20T15:46:51.850Z,28.60
2018-06-20T15:49:20.794Z,28.60
2018-06-20T15:51:49.504Z,28.70
2018-06-20T15:54:18.507Z,28.60
2018-06-20T15:56:47.242Z,28.70
2018-06-20T15:59:15.779Z,28.70
2018-06-20T16:01:44.358Z,28.60
2018-06-20T16:04:12.996Z,28.60
2018-06-20T16:06:42.168Z,28.60
2018-06-20T16:09:15.976Z,28.60
2018-06-20T16:11:45.107Z,28.50
2018-06-20T16:14:16.101Z,28.40
2018-06-20T16:16:44.762Z,28.40
2018-06-20T16:19:18.524Z,28.30
2018-06-20T16:21:52.573Z,28.40
2018-06-20T16:24:26.792Z,28.30
2018-06-20T16:27:00.686Z,28.30
2018-06-20T16:30:36.367Z,28.20
2018-06-20T16:33:05.349Z,28.10
2018-06-20T16:35:34.364Z,28.00
2018-06-20T16:38:03.397Z,27.90
2018-06-20T16:40:31.927Z,28.00
2018-06-20T16:43:01.023Z,27.80
2018-06-20T16:47:58.199Z,27.70
2018-06-20T16:50:26.864Z,27.60
2018-06-20T16:52:55.857Z,27.60
2018-06-20T16:55:24.611Z,27.50
2018-06-20T16:57:53.463Z,27.50
2018-06-20T17:00:22.428Z,27.60
2018-06-20T17:02:51.223Z,27.50
2018-06-20T17:05:20.095Z,27.40
2018-06-20T17:07:48.656Z,27.20
2018-06-20T17:10:20.058Z,27.10
2018-06-20T17:12:55.137Z,27.00
2018-06-20T17:15:29.339Z,27.00
2018-06-20T17:18:03.321Z,27.00
2018-06-20T17:23:11.371Z,26.90
2018-06-20T17:25:40.139Z,26.80
2018-06-20T17:28:08.775Z,26.80
2018-06-20T17:30:37.376Z,26.70
2018-06-20T17:33:06.104Z,26.80
2018-06-20T17:35:34.972Z,26.70
2018-06-20T17:38:04.369Z,26.70
2018-06-20T17:40:32.995Z,26.60
2018-06-20T17:43:01.564Z,26.50
2018-06-20T17:45:30.272Z,26.40
2018-06-20T17:47:58.887Z,26.40
2018-06-20T17:50:27.459Z,26.40
2018-06-20T17:52:56.034Z,26.40
2018-06-20T17:55:24.611Z,26.30
2018-06-20T17:57:53.188Z,26.30
2018-06-20T18:00:21.955Z,26.30
2018-06-20T18:02:50.531Z,26.30
2018-06-20T18:05:24.469Z,26.20
2018-06-20T18:07:58.529Z,26.20
2018-06-20T18:10:32.394Z,26.10
2018-06-20T18:13:07.748Z,26.10
2018-06-20T18:15:41.809Z,26.00
2018-06-20T18:18:10.471Z,25.90
2018-06-20T18:20:39.211Z,25.80
2018-06-20T18:23:07.971Z,25.80
2018-06-20T18:25:36.527Z,25.70
2018-06-20T18:28:05.527Z,25.70
2018-06-20T18:30:34.153Z,25.70
2018-06-20T18:33:02.769Z,25.60
2018-06-20T18:35:31.439Z,25.50
2018-06-20T18:38:00.197Z,25.50
2018-06-20T18:40:29.185Z,25.40
2018-06-20T18:42:57.822Z,25.40
2018-06-20T18:45:26.471Z,25.30
2018-06-20T18:48:00.528Z,25.20
2018-06-20T18:52:58.035Z,25.10
2018-06-20T18:55:26.879Z,24.90
2018-06-20T18:58:01.215Z,24.90
2018-06-20T19:00:35.439Z,24.80
2018-06-20T19:04:12.781Z,24.70
2018-06-20T19:06:46.748Z,24.60
2018-06-20T19:09:18.102Z,24.50
2018-06-20T19:11:47.477Z,24.50
2018-06-20T19:14:16.788Z,24.50
2018-06-20T19:16:45.492Z,24.40
2018-06-20T19:19:14.242Z,24.30
2018-06-20T19:21:43.528Z,24.20
2018-06-20T19:24:12.786Z,24.20
2018-06-20T19:26:41.419Z,24.10
2018-06-20T19:29:10.202Z,24.00
2018-06-20T19:31:38.883Z,23.90
2018-06-20T19:34:07.795Z,23.80
2018-06-20T19:39:12.308Z,23.60
2018-06-20T19:41:42.201Z,23.50
2018-06-20T19:44:16.251Z,23.30
2018-06-20T19:46:44.949Z,23.20
2018-06-20T19:49:13.589Z,23.10
2018-06-20T19:51:42.264Z,23.00
2018-06-20T19:54:10.991Z,22.80
2018-06-20T19:56:39.667Z,22.80
2018-06-20T19:59:08.375Z,22.70
2018-06-20T20:01:37.167Z,22.60
2018-06-20T20:04:06.083Z,22.50
2018-06-20T20:06:34.737Z,22.50
2018-06-20T20:09:03.645Z,22.40
2018-06-20T20:11:32.312Z,22.40
2018-06-20T20:14:00.881Z,22.40
2018-06-20T20:16:29.522Z,22.30
2018-06-20T20:18:58.177Z,22.30
2018-06-20T20:21:26.776Z,22.20
2018-06-20T20:23:55.445Z,22.30
2018-06-20T20:26:24.208Z,22.30
2018-06-20T20:28:52.830Z,22.20
2018-06-20T20:31:22.091Z,22.10
2018-06-20T20:33:51.532Z,22.00
2018-06-20T20:36:20.516Z,21.90
2018-06-20T20:38:49.561Z,21.80
2018-06-20T20:41:20.148Z,21.70
2018-06-20T20:43:49.223Z,21.70
2018-06-20T20:46:19.118Z,21.60
2018-06-20T20:48:48.126Z,21.50
2018-06-20T20:51:16.878Z,21.40
2018-06-20T20:53:46.461Z,21.30
2018-06-20T20:56:15.197Z,21.30
2018-06-20T20:58:43.912Z,21.20
2018-06-20T21:01:12.835Z,21.10
2018-06-20T21:03:42.372Z,21.10
2018-06-20T21:06:11.273Z,21.00
2018-06-20T21:08:39.863Z,20.90
2018-06-20T21:11:08.832Z,20.80
2018-06-20T21:13:38.007Z,20.80
2018-06-20T21:16:06.980Z,20.80
2018-06-20T21:18:36.131Z,20.70
2018-06-20T21:21:04.947Z,20.60
2018-06-20T21:23:33.712Z,20.50
2018-06-20T21:26:02.363Z,20.50
2018-06-20T21:28:31.149Z,20.50
2018-06-20T21:31:00.218Z,20.50
2018-06-20T21:33:29.290Z,20.40
2018-06-20T21:35:58.467Z,20.40
2018-06-20T21:38:28.921Z,20.40
2018-06-20T21:40:57.887Z,20.40
2018-06-20T21:43:26.775Z,20.40
2018-06-20T21:45:56.435Z,20.30
2018-06-20T21:48:25.620Z,20.30
2018-06-20T21:50:54.716Z,20.30
2018-06-20T21:53:24.218Z,20.30
2018-06-20T21:55:53.613Z,20.20
2018-06-20T21:58:22.158Z,20.20
2018-06-20T22:00:50.819Z,20.20
2018-06-20T22:03:19.862Z,20.20
2018-06-20T22:05:48.655Z,20.20
2018-06-20T22:08:18.850Z,20.20
2018-06-20T22:10:48.348Z,20.10
2018-06-20T22:13:18.043Z,20.00
2018-06-20T22:15:47.108Z,20.00
2018-06-20T22:18:17.399Z,19.90
2018-06-20T22:20:46.547Z,19.90
2018-06-20T22:23:15.452Z,19.90
2018-06-20T22:25:45.738Z,19.80
2018-06-20T22:28:14.431Z,19.80
2018-06-20T22:30:43.395Z,19.80
2018-06-20T22:33:12.627Z,19.80
2018-06-20T22:35:42.550Z,19.70
2018-06-20T22:38:12.120Z,19.70
2018-06-20T22:40:41.063Z,19.60
2018-06-20T22:45:38.210Z,19.60
2018-06-20T22:48:07.300Z,19.50
2018-06-20T22:50:36.075Z,19.50
2018-06-20T22:53:04.950Z,19.50
2018-06-20T22:55:33.661Z,19.50
2018-06-20T22:58:03.563Z,19.50
2018-06-20T23:00:32.470Z,19.40
2018-06-20T23:03:01.026Z,19.40
2018-06-20T23:05:29.632Z,19.40
2018-06-20T23:07:58.283Z,19.40
2018-06-20T23:10:26.976Z,19.40
2018-06-20T23:12:56.057Z,19.30
2018-06-20T23:15:24.890Z,19.30
2018-06-20T23:17:53.832Z,19.40
2018-06-20T23:20:22.599Z,19.40
2018-06-20T23:22:51.420Z,19.40
2018-06-20T23:25:20.303Z,19.50
2018-06-20T23:27:48.949Z,19.60
2018-06-20T23:30:17.932Z,19.80
2018-06-20T23:32:46.441Z,19.90
2018-06-20T23:35:15.248Z,20.00
2018-06-20T23:37:43.973Z,20.10
2018-06-20T23:40:12.851Z,20.10
2018-06-20T23:42:41.356Z,20.20
2018-06-20T23:45:10.091Z,20.20
2018-06-20T23:47:38.684Z,20.20
2018-06-20T23:50:07.493Z,20.10
2018-06-20T23:52:36.178Z,20.20
2018-06-20T23:55:05.647Z,20.10
2018-06-20T23:57:34.816Z,20.10
